Time;durP1;ratioP1;P1;durP2;ratioP2;P2;SDS_P1;SDS_P2;PMS_P1;PMS_P2;Temp;Humidity;BMP_temperature;BMP_pressure;BME280_temperature;BME280_humidity;BME280_pressure;Samples;Min_cycle;Max_cycle;Signal;HPM_P1;HPM_P2
2022/04/24 00:02:01;;;;;;;0.00;0.00;;;;;;;13.68;51.79;100499.44;5092821;28;20032;-77
2022/04/24 00:04:27;;;;;;;0.10;0.10;;;;;;;13.66;52.31;100498.63;5099599;28;20034;-77
2022/04/24 00:06:53;;;;;;;0.00;0.00;;;;;;;13.62;52.18;100490.81;5097762;28;20039;-77
2022/04/24 00:09:20;;;;;;;0.10;0.10;;;;;;;13.58;52.73;100490.94;5095448;28;20461;-75
2022/04/24 00:11:47;;;;;;;0.08;0.08;;;;;;;13.57;51.97;100499.84;5095893;28;20035;-76
2022/04/24 00:14:14;;;;;;;0.10;0.10;;;;;;;13.56;51.82;100497.25;5107557;28;20027;-76
2022/04/24 00:16:41;;;;;;;0.03;0.03;;;;;;;13.54;51.71;100502.63;5091600;28;20020;-76
2022/04/24 00:19:07;;;;;;;0.10;0.10;;;;;;;13.52;50.62;100504.47;5100835;28;20028;-77
2022/04/24 00:21:34;;;;;;;0.10;0.10;;;;;;;13.50;50.84;100492.16;5098484;28;20036;-77
2022/04/24 00:24:00;;;;;;;0.10;0.10;;;;;;;13.48;51.35;100492.19;5107103;28;20035;-76
2022/04/24 00:26:26;;;;;;;0.08;0.08;;;;;;;13.46;51.80;100486.09;5089353;28;20028;-77
2022/04/24 00:28:53;;;;;;;0.28;0.28;;;;;;;13.45;51.33;100491.47;5088101;28;20027;-78
2022/04/24 00:31:20;;;;;;;0.20;0.20;;;;;;;13.45;52.25;100488.81;5084755;28;20021;-77
2022/04/24 00:33:46;;;;;;;0.10;0.10;;;;;;;13.43;51.78;100492.38;5087365;28;20107;-77
2022/04/24 00:36:12;;;;;;;0.00;0.00;;;;;;;13.42;51.65;100490.66;5089657;28;20430;-77
2022/04/24 00:38:38;;;;;;;0.10;0.10;;;;;;;13.42;51.54;100489.75;5089546;28;20097;-77
2022/04/24 00:41:05;;;;;;;0.10;0.10;;;;;;;13.39;51.39;100484.56;5086591;28;20470;-77
2022/04/24 00:43:31;;;;;;;0.10;0.10;;;;;;;13.36;51.45;100479.34;5089881;28;20024;-77
2022/04/24 00:46:12;;;;;;;3.20;1.40;;;;;;;13.45;51.17;100481.69;5106702;28;20063;-77
2022/04/24 00:48:40;;;;;;;0.10;0.10;;;;;;;13.39;51.38;100484.56;5100673;28;20043;-76
2022/04/24 00:51:08;;;;;;;0.20;0.20;;;;;;;13.34;51.56;100481.19;5086916;28;20024;-77
2022/04/24 00:53:35;;;;;;;1.08;1.05;;;;;;;13.32;51.24;100475.94;5087723;28;20107;-77
2022/04/24 00:56:02;;;;;;;0.00;0.00;;;;;;;13.31;51.50;100481.28;5089856;28;20035;-77
2022/04/24 00:58:28;;;;;;;0.32;0.32;;;;;;;13.29;51.15;100470.72;5089029;28;20052;-77
2022/04/24 01:00:56;;;;;;;0.10;0.10;;;;;;;13.30;50.83;100474.25;5088617;28;20039;-77
2022/04/24 01:03:23;;;;;;;0.10;0.10;;;;;;;13.31;50.46;100475.97;5088497;28;20063;-77
2022/04/24 01:05:49;;;;;;;0.10;0.10;;;;;;;13.31;50.35;100475.97;5088210;28;20486;-77
2022/04/24 01:08:15;;;;;;;0.10;0.10;;;;;;;13.29;50.44;100465.38;5089029;28;20032;-77
2022/04/24 01:10:42;;;;;;;0.10;0.10;;;;;;;13.23;50.80;100482.47;5088670;28;20032;-77
2022/04/24 01:13:10;;;;;;;0.00;0.00;;;;;;;13.22;50.81;100475.41;5084566;28;20020;-77
2022/04/24 01:15:36;;;;;;;0.10;0.10;;;;;;;13.18;50.28;100481.75;5090123;28;20028;-78
2022/04/24 01:18:02;;;;;;;0.10;0.10;;;;;;;13.17;51.27;100474.72;5083285;28;20031;-77
2022/04/24 01:20:29;;;;;;;0.08;0.08;;;;;;;13.16;50.62;100482.72;5084124;28;20050;-78
2022/04/24 01:22:55;;;;;;;0.10;0.10;;;;;;;13.14;50.76;100473.94;5089064;28;20116;-77
2022/04/24 01:25:21;;;;;;;0.20;0.20;;;;;;;13.13;50.96;100473.06;5090078;28;20035;-77
2022/04/24 01:27:47;;;;;;;0.10;0.10;;;;;;;13.15;51.25;100473.88;5089441;28;20038;-77
2022/04/24 01:30:13;;;;;;;0.10;0.10;;;;;;;13.15;50.64;100473.88;5084965;28;20034;-77
2022/04/24 01:32:39;;;;;;;0.10;0.10;;;;;;;13.15;50.56;100481.00;5090046;28;20039;-76
2022/04/24 01:35:07;;;;;;;0.38;0.38;;;;;;;13.16;50.86;100478.28;5091380;28;20065;-76
2022/04/24 01:37:34;;;;;;;1.17;0.85;;;;;;;13.16;51.24;100483.59;5090787;28;20548;-75
2022/04/24 01:40:00;;;;;;;0.10;0.10;;;;;;;13.15;51.14;100476.53;5091276;28;20043;-76
2022/04/24 01:42:26;;;;;;;0.00;0.00;;;;;;;13.14;49.94;100485.44;5089736;28;20024;-76
2022/04/24 01:44:52;;;;;;;0.45;0.45;;;;;;;13.08;50.42;100490.97;5090912;28;20027;-76
2022/04/24 01:47:19;;;;;;;0.17;0.17;;;;;;;13.08;50.53;100486.56;5090347;28;20524;-76
2022/04/24 01:49:45;;;;;;;0.10;0.10;;;;;;;13.06;50.83;100482.19;5091002;28;20063;-76
2022/04/24 01:52:11;;;;;;;0.10;0.10;;;;;;;13.03;50.46;100483.16;5096648;28;20027;-76
2022/04/24 01:54:37;;;;;;;0.30;0.30;;;;;;;13.00;52.03;100482.44;5093724;28;20055;-76
2022/04/24 01:57:03;;;;;;;0.20;0.20;;;;;;;12.97;51.77;100483.38;5093099;28;20024;-76
2022/04/24 01:59:29;;;;;;;0.10;0.10;;;;;;;12.96;51.90;100481.66;5093332;28;20032;-76
2022/04/24 02:01:56;;;;;;;0.43;0.43;;;;;;;12.94;52.04;100480.84;5093353;28;20027;-76
2022/04/24 02:04:23;;;;;;;0.73;0.73;;;;;;;12.95;51.76;100479.94;5093416;28;20032;-76
2022/04/24 02:06:50;;;;;;;0.00;0.00;;;;;;;12.93;51.11;100480.00;5093616;28;20107;-76
2022/04/24 02:09:16;;;;;;;0.10;0.10;;;;;;;12.92;50.90;100483.56;5093000;28;20115;-76
2022/04/24 02:11:42;;;;;;;0.15;0.15;;;;;;;12.91;52.45;100483.59;5092248;28;20028;-76
2022/04/24 02:14:09;;;;;;;0.10;0.10;;;;;;;12.89;52.00;100483.66;5092188;28;20564;-76
2022/04/24 02:16:35;;;;;;;0.00;0.00;;;;;;;12.85;52.29;100483.84;5085321;28;20493;-76
2022/04/24 02:19:01;;;;;;;0.05;0.05;;;;;;;12.84;51.64;100488.28;5092847;28;20028;-76
2022/04/24 02:21:28;;;;;;;0.32;0.32;;;;;;;12.82;52.60;100489.25;5091373;28;20032;-77
2022/04/24 02:23:55;;;;;;;0.00;0.00;;;;;;;12.80;51.71;100478.69;5092443;28;20016;-76
2022/04/24 02:26:21;;;;;;;0.10;0.10;;;;;;;12.78;52.65;100485.84;5092611;28;20047;-77
2022/04/24 02:28:48;;;;;;;0.10;0.10;;;;;;;12.77;52.13;100489.41;5092515;28;20038;-77
2022/04/24 02:31:14;;;;;;;0.00;0.00;;;;;;;12.75;53.08;100491.28;5091354;28;20521;-77
2022/04/24 02:33:40;;;;;;;0.10;0.10;;;;;;;12.73;51.93;100491.31;5098369;28;20036;-77
2022/04/24 02:36:06;;;;;;;2.00;1.90;;;;;;;12.71;52.76;100489.63;5102822;28;20028;-76
2022/04/24 02:38:32;;;;;;;0.25;0.25;;;;;;;12.70;52.34;100494.09;5097905;28;20042;-77
2022/04/24 02:40:58;;;;;;;0.30;0.30;;;;;;;12.67;52.63;100495.97;5102475;28;20038;-77
2022/04/24 02:43:25;;;;;;;0.43;0.43;;;;;;;12.66;53.59;100491.56;5095398;28;20047;-77
2022/04/24 02:45:51;;;;;;;0.35;0.35;;;;;;;12.64;53.19;100494.28;5101109;28;20062;-76
2022/04/24 02:48:17;;;;;;;0.40;0.40;;;;;;;12.62;53.47;100489.03;5103151;28;20028;-75
2022/04/24 02:50:43;;;;;;;0.10;0.10;;;;;;;12.59;52.61;100489.13;5103679;28;20042;-75
2022/04/24 02:53:10;;;;;;;0.03;0.03;;;;;;;12.58;52.76;100492.69;5098107;28;20036;-76
2022/04/24 02:55:36;;;;;;;0.60;0.60;;;;;;;12.53;54.60;100489.31;5099314;28;20028;-76
2022/04/24 02:58:03;;;;;;;0.17;0.17;;;;;;;12.51;52.85;100496.50;5098219;28;20040;-77
2022/04/24 03:00:39;;;;;;;0.10;0.10;;;;;;;12.46;53.02;100498.41;5088608;28;20446;-76
2022/04/24 03:03:07;;;;;;;2.55;0.45;;;;;;;12.40;54.53;100496.84;5095710;28;20584;-75
2022/04/24 03:05:33;;;;;;;0.13;0.13;;;;;;;12.36;52.86;100500.53;5091273;28;20123;-75
2022/04/24 03:08:00;;;;;;;0.30;0.30;;;;;;;12.33;53.78;100497.97;5094086;28;20493;-75
2022/04/24 03:10:26;;;;;;;0.10;0.10;;;;;;;12.33;52.83;100489.16;5096522;28;20031;-75
2022/04/24 03:12:52;;;;;;;0.38;0.38;;;;;;;12.29;53.66;100491.88;5089020;28;20024;-76
2022/04/24 03:15:18;;;;;;;0.10;0.10;;;;;;;12.28;54.86;100492.81;5093023;28;20040;-76
2022/04/24 03:17:45;;;;;;;0.10;0.10;;;;;;;12.26;54.48;100493.78;5103657;28;20053;-76
2022/04/24 03:20:12;;;;;;;0.10;0.10;;;;;;;12.25;54.77;100497.34;5116384;28;20553;-78
2022/04/24 03:22:38;;;;;;;0.28;0.28;;;;;;;12.24;54.42;100492.97;5119511;28;20024;-78
2022/04/24 03:25:07;;;;;;;0.10;0.10;;;;;;;12.24;54.16;100499.13;5114889;28;20069;-77
2022/04/24 03:27:34;;;;;;;0.10;0.10;;;;;;;12.16;55.86;100495.00;5114802;28;20093;-78
2022/04/24 03:30:00;;;;;;;0.10;0.10;;;;;;;12.19;54.96;100492.25;5114108;28;20020;-76
2022/04/24 03:32:31;;;;;;;0.00;0.00;;;;;;;12.23;54.95;100491.22;5090602;28;20108;-77
2022/04/24 03:34:58;;;;;;;0.10;0.10;;;;;;;12.17;54.24;100494.09;5091172;28;20558;-77
2022/04/24 03:37:24;;;;;;;0.10;0.10;;;;;;;12.20;53.84;100492.19;5092731;28;20073;-77
2022/04/24 03:39:50;;;;;;;0.10;0.10;;;;;;;12.18;55.33;100487.84;5096884;28;20505;-76
2022/04/24 03:42:16;;;;;;;0.28;0.28;;;;;;;12.20;54.88;100486.88;5095813;28;20088;-77
2022/04/24 03:44:43;;;;;;;0.22;0.22;;;;;;;12.16;55.44;100487.88;5104479;28;20036;-77
2022/04/24 03:47:09;;;;;;;0.10;0.10;;;;;;;12.13;54.38;100480.03;5097038;28;20066;-77
2022/04/24 03:49:35;;;;;;;3.40;0.85;;;;;;;12.11;55.93;100481.84;5105233;28;20054;-78
2022/04/24 03:52:01;;;;;;;0.10;0.10;;;;;;;12.10;55.80;100485.44;5103944;28;20020;-77
2022/04/24 03:54:27;;;;;;;0.57;0.57;;;;;;;12.08;56.03;100484.63;5098145;28;20016;-78
2022/04/24 03:56:53;;;;;;;0.10;0.10;;;;;;;12.08;54.61;100485.47;5101813;28;20485;-78
2022/04/24 03:59:20;;;;;;;0.47;0.47;;;;;;;12.06;55.95;100483.78;5101978;28;20508;-77
2022/04/24 04:01:46;;;;;;;3.08;1.75;;;;;;;12.04;55.56;100483.00;5097164;28;20028;-77
2022/04/24 04:04:12;;;;;;;0.30;0.30;;;;;;;12.03;55.88;100478.59;5093172;28;20471;-77
2022/04/24 04:06:38;;;;;;;0.10;0.10;;;;;;;12.01;55.24;100486.59;5098262;28;20046;-77
2022/04/24 04:09:04;;;;;;;0.13;0.13;;;;;;;12.00;54.79;100482.22;5088840;28;20048;-77
2022/04/24 04:11:30;;;;;;;0.45;0.22;;;;;;;11.98;54.80;100474.28;5091298;28;20373;-77
2022/04/24 04:13:56;;;;;;;0.30;0.30;;;;;;;11.96;55.52;100484.09;5094548;28;20028;-77
2022/04/24 04:16:23;;;;;;;0.10;0.10;;;;;;;11.95;55.87;100489.41;5099757;28;20572;-77
2022/04/24 04:18:49;;;;;;;0.10;0.10;;;;;;;11.91;56.25;100491.31;5102324;28;20481;-76
2022/04/24 04:21:15;;;;;;;0.25;0.25;;;;;;;11.91;55.68;100496.63;5092995;28;20047;-75
2022/04/24 04:23:41;;;;;;;0.10;0.10;;;;;;;11.89;55.60;100498.44;5099329;28;20023;-76
2022/04/24 04:26:07;;;;;;;0.22;0.22;;;;;;;11.89;54.95;100493.13;5098743;28;20045;-77
2022/04/24 04:28:33;;;;;;;0.10;0.10;;;;;;;11.86;55.88;100500.31;5099508;28;20405;-77
2022/04/24 04:30:59;;;;;;;0.10;0.10;;;;;;;11.85;55.49;100501.22;5064690;22;20058;-75
2022/04/24 04:33:26;;;;;;;0.10;0.10;;;;;;;11.86;55.27;100503.84;5010537;28;20038;-75
2022/04/24 04:35:52;;;;;;;0.63;0.63;;;;;;;11.86;56.08;100508.28;5010763;28;20025;-76
2022/04/24 04:38:18;;;;;;;0.10;0.10;;;;;;;11.86;56.63;100497.66;5013656;28;20049;-76
2022/04/24 04:40:44;;;;;;;0.10;0.10;;;;;;;11.85;55.59;100503.88;5013254;28;20037;-74
2022/04/24 04:43:11;;;;;;;0.20;0.20;;;;;;;11.85;55.28;100494.16;5011068;28;20030;-76
2022/04/24 04:45:37;;;;;;;0.10;0.10;;;;;;;11.84;55.81;100508.34;5011976;28;20040;-76
2022/04/24 04:48:03;;;;;;;0.68;0.68;;;;;;;11.86;55.62;100509.16;5011770;28;20065;-77
2022/04/24 04:50:29;;;;;;;0.10;0.10;;;;;;;11.86;55.90;100513.59;5011051;28;20089;-75
2022/04/24 04:52:55;;;;;;;0.10;0.10;;;;;;;11.85;55.09;100510.09;5013153;28;20029;-76
2022/04/24 04:55:22;;;;;;;0.20;0.20;;;;;;;11.84;55.05;100515.41;5013283;28;20106;-76
2022/04/24 04:57:48;;;;;;;0.10;0.10;;;;;;;11.86;54.97;100519.75;5017113;28;20696;-78
2022/04/24 05:00:15;;;;;;;0.10;0.10;;;;;;;11.88;55.23;100523.25;5012465;28;20097;-77
2022/04/24 05:02:41;;;;;;;0.10;0.10;;;;;;;11.87;54.92;100521.50;5011438;28;20044;-76
2022/04/24 05:05:08;;;;;;;0.15;0.15;;;;;;;11.90;55.05;100518.78;5033531;28;20045;-75
2022/04/24 05:07:36;;;;;;;0.10;0.10;;;;;;;11.92;55.12;100524.03;5036522;28;20026;-75
2022/04/24 05:10:03;;;;;;;0.10;0.10;;;;;;;11.94;54.86;100523.06;5020848;28;20084;-76
2022/04/24 05:12:30;;;;;;;0.65;0.30;;;;;;;11.96;54.91;100531.00;5013483;28;20152;-77
2022/04/24 05:17:39;;;;;;;1.42;1.33;;;;;;;11.96;54.48;100542.50;5118954;27;20138;-77
2022/04/24 05:20:10;;;;;;;0.30;0.30;;;;;;;12.05;54.75;100556.41;5090677;28;20032;-76
2022/04/24 05:22:37;;;;;;;0.30;0.30;;;;;;;12.00;55.40;100542.41;5089539;28;20066;-75
2022/04/24 05:25:05;;;;;;;0.70;0.70;;;;;;;12.04;55.38;100552.03;5080602;28;20524;-75
2022/04/24 05:27:31;;;;;;;0.10;0.10;;;;;;;11.98;55.67;100551.28;5083825;28;20037;-76
2022/04/24 05:29:58;;;;;;;0.10;0.10;;;;;;;12.02;54.85;100544.09;5082939;28;20060;-75
2022/04/24 05:32:24;;;;;;;0.20;0.20;;;;;;;12.06;55.07;100542.22;5077291;28;20036;-76
2022/04/24 05:34:52;;;;;;;0.10;0.10;;;;;;;12.11;55.24;100545.59;5079455;28;20035;-76
2022/04/24 05:37:18;;;;;;;0.10;0.10;;;;;;;12.11;54.59;100550.91;5077664;28;20032;-75
2022/04/24 05:39:44;;;;;;;0.03;0.03;;;;;;;12.17;55.17;100544.53;5080469;28;20054;-77
2022/04/24 05:42:10;;;;;;;0.10;0.10;;;;;;;12.22;55.11;100546.13;5083999;28;20085;-76
2022/04/24 05:44:36;;;;;;;0.10;0.10;;;;;;;12.25;55.16;100548.69;5077782;28;20521;-76
2022/04/24 05:47:02;;;;;;;0.10;0.10;;;;;;;12.28;54.73;100553.03;5084535;28;20035;-76
2022/04/24 05:49:31;;;;;;;0.43;0.43;;;;;;;12.35;54.64;100548.38;5077727;28;20036;-77
2022/04/24 05:52:00;;;;;;;0.25;0.25;;;;;;;12.35;55.14;100553.69;5083842;28;20051;-76
2022/04/24 05:54:29;;;;;;;0.20;0.20;;;;;;;12.39;54.88;100550.06;5085253;28;20028;-76
2022/04/24 05:56:55;;;;;;;1.40;1.35;;;;;;;12.45;54.23;100557.81;5081400;28;20067;-77
2022/04/24 05:59:22;;;;;;;0.10;0.10;;;;;;;12.50;54.53;100563.84;5081137;28;20028;-75
2022/04/24 06:01:48;;;;;;;0.00;0.00;;;;;;;12.48;54.04;100555.06;5084383;28;20074;-75
2022/04/24 06:04:14;;;;;;;0.88;0.52;;;;;;;12.58;53.63;100556.47;5083538;28;20032;-75
2022/04/24 06:06:40;;;;;;;0.10;0.10;;;;;;;12.61;54.10;100558.16;5080181;28;20035;-76
2022/04/24 06:09:06;;;;;;;0.03;0.03;;;;;;;12.68;54.43;100566.81;5082741;28;20060;-76
2022/04/24 06:11:32;;;;;;;0.10;0.10;;;;;;;12.74;54.06;100566.63;5082068;28;20039;-75
2022/04/24 06:13:59;;;;;;;0.10;0.10;;;;;;;12.74;54.25;100571.94;5083571;28;20111;-77
2022/04/24 06:16:25;;;;;;;0.10;0.10;;;;;;;12.79;53.68;100575.31;5081755;28;20049;-76
2022/04/24 06:18:51;;;;;;;0.90;0.90;;;;;;;12.82;53.84;100585.81;5089609;28;20123;-77
2022/04/24 06:21:17;;;;;;;0.00;0.00;;;;;;;12.89;53.49;100582.03;5079290;28;20109;-76
2022/04/24 06:23:44;;;;;;;0.10;0.10;;;;;;;12.94;53.48;100579.22;5085869;28;20517;-75
2022/04/24 06:26:10;;;;;;;2.72;0.75;;;;;;;13.02;54.00;100577.19;5095882;28;20017;-74
2022/04/24 06:28:36;;;;;;;0.10;0.10;;;;;;;13.02;54.27;100574.53;5095968;28;20216;-74
2022/04/24 06:31:02;;;;;;;0.00;0.00;;;;;;;13.03;53.42;100567.41;5080935;28;20085;-74
2022/04/24 06:33:28;;;;;;;0.43;0.43;;;;;;;13.12;53.34;100572.41;5069386;28;20119;-76
2022/04/24 06:35:55;;;;;;;0.10;0.10;;;;;;;13.19;53.53;100579.25;5071334;28;20043;-76
2022/04/24 06:38:22;;;;;;;0.10;0.10;;;;;;;13.22;53.08;100573.84;5068378;28;20125;-76
2022/04/24 06:40:48;;;;;;;0.08;0.08;;;;;;;13.26;53.01;100578.13;5065000;28;20032;-77
2022/04/24 06:43:14;;;;;;;0.43;0.43;;;;;;;13.31;53.27;100579.72;5066830;28;20021;-77
2022/04/24 06:45:42;;;;;;;0.00;0.00;;;;;;;13.38;53.00;100581.28;5066500;28;20033;-76
2022/04/24 06:48:11;;;;;;;0.40;0.40;;;;;;;13.41;52.97;100589.19;5077119;28;20107;-76
2022/04/24 06:50:40;;;;;;;0.10;0.10;;;;;;;13.48;52.69;100588.00;5060059;28;20033;-77
2022/04/24 06:53:10;;;;;;;0.10;0.10;;;;;;;13.53;53.12;100596.72;5068446;28;20020;-76
2022/04/24 06:55:38;;;;;;;0.22;0.22;;;;;;;13.61;53.20;100588.44;5064721;28;20033;-76
2022/04/24 06:58:06;;;;;;;0.45;0.45;;;;;;;13.69;53.06;100589.00;5081584;28;20036;-76
2022/04/24 07:00:38;;;;;;;0.20;0.20;;;;;;;13.68;52.24;100589.97;5062917;28;20060;-79
2022/04/24 07:03:21;;;;;;;0.10;0.10;;;;;;;13.88;51.92;100599.88;5064922;28;20107;-75
2022/04/24 07:05:49;;;;;;;0.10;0.10;;;;;;;13.91;51.64;100599.72;5066050;28;20074;-76
2022/04/24 07:08:16;;;;;;;0.10;0.10;;;;;;;13.95;52.10;100596.97;5068621;28;20031;-76
2022/04/24 07:10:42;;;;;;;0.10;0.10;;;;;;;13.96;51.42;100596.06;5063246;28;20039;-76
2022/04/24 07:13:08;;;;;;;0.45;0.28;;;;;;;14.03;51.61;100598.41;5064808;28;20040;-76
2022/04/24 07:15:38;;;;;;;0.00;0.00;;;;;;;14.11;51.63;100594.59;5071358;28;20386;-76
2022/04/24 07:18:06;;;;;;;0.10;0.10;;;;;;;14.18;51.52;100598.72;5075722;28;20558;-76
2022/04/24 07:20:32;;;;;;;0.10;0.10;;;;;;;14.26;51.89;100603.78;5081613;28;20043;-76
2022/04/24 07:23:01;;;;;;;0.10;0.10;;;;;;;14.30;51.22;100600.06;5054841;28;20552;-76
2022/04/24 07:25:33;;;;;;;0.00;0.00;;;;;;;14.37;51.22;100602.41;5060854;28;20108;-76
2022/04/24 07:27:59;;;;;;;0.10;0.10;;;;;;;14.39;51.26;100599.69;5066745;28;20027;-75
2022/04/24 07:30:25;;;;;;;0.00;0.00;;;;;;;14.45;50.50;100598.59;5058837;28;20051;-75
2022/04/24 07:32:54;;;;;;;0.03;0.03;;;;;;;14.47;50.25;100602.91;5061502;28;20029;-76
2022/04/24 07:35:23;;;;;;;0.10;0.10;;;;;;;14.55;50.76;100600.81;5056019;28;20032;-78
2022/04/24 07:37:50;;;;;;;3.03;0.63;;;;;;;14.60;50.48;100602.44;5057691;28;20036;-76
2022/04/24 07:40:20;;;;;;;0.08;0.08;;;;;;;14.62;49.80;100603.25;5071355;28;20023;-77
2022/04/24 07:45:24;;;;;;;0.10;0.10;;;;;;;14.75;49.74;100607.16;5093569;27;779059;-76
2022/04/24 07:47:54;;;;;;;0.10;0.10;;;;;;;14.81;49.91;100606.91;5118908;28;20036;-75
2022/04/24 07:50:23;;;;;;;0.28;0.28;;;;;;;14.88;50.14;100608.38;5115690;28;20036;-75
2022/04/24 07:52:50;;;;;;;1.17;0.43;;;;;;;14.98;49.93;100603.53;5095772;28;20716;-75
2022/04/24 07:55:19;;;;;;;0.10;0.10;;;;;;;15.11;49.68;100609.22;5081746;28;20032;-75
2022/04/24 07:57:47;;;;;;;0.00;0.00;;;;;;;15.17;49.28;100602.75;5087764;28;20032;-76
2022/04/24 08:00:15;;;;;;;0.10;0.10;;;;;;;15.26;49.38;100605.00;5080618;28;20437;-76
2022/04/24 08:05:24;;;;;;;0.10;0.10;;;;;;;15.41;48.96;100606.13;5115643;27;20186;-75
2022/04/24 08:07:51;;;;;;;0.20;0.20;;;;;;;15.45;48.77;100605.09;5092757;28;20034;-76
2022/04/24 08:10:19;;;;;;;0.05;0.05;;;;;;;15.52;48.18;100617.22;5092129;28;20035;-75
2022/04/24 08:12:45;;;;;;;0.10;0.10;;;;;;;15.58;48.40;100618.75;5096951;28;20086;-75
2022/04/24 08:15:12;;;;;;;0.68;0.68;;;;;;;15.64;48.09;100613.13;5101495;28;20020;-75
2022/04/24 08:17:38;;;;;;;0.20;0.20;;;;;;;15.74;48.08;100620.72;5099194;28;20027;-74
2022/04/24 08:20:06;;;;;;;0.00;0.00;;;;;;;15.81;48.35;100619.53;5097090;28;20612;-74
2022/04/24 08:22:43;;;;;;;0.22;0.22;;;;;;;15.95;48.02;100618.91;5088697;28;20028;-75
2022/04/24 08:25:11;;;;;;;0.00;0.00;;;;;;;15.98;47.85;100624.13;5092426;28;20391;-76
2022/04/24 08:27:38;;;;;;;0.00;0.00;;;;;;;16.05;47.99;100627.38;5098593;28;20024;-75
2022/04/24 08:30:06;;;;;;;0.10;0.10;;;;;;;16.15;47.92;100626.03;5088566;28;20032;-75
2022/04/24 08:32:33;;;;;;;0.10;0.10;;;;;;;16.25;48.00;100618.41;5086172;28;20024;-76
2022/04/24 08:34:59;;;;;;;0.30;0.30;;;;;;;16.31;47.24;100618.13;5099841;28;20020;-76
2022/04/24 08:37:26;;;;;;;1.02;0.95;;;;;;;16.35;47.14;100627.75;5097575;28;20058;-75
2022/04/24 08:39:53;;;;;;;0.00;0.00;;;;;;;16.40;47.22;100624.84;5097283;28;20115;-76
2022/04/24 08:42:21;;;;;;;0.20;0.20;;;;;;;16.43;47.18;100628.25;5095869;28;20023;-75
2022/04/24 08:44:49;;;;;;;0.20;0.20;;;;;;;16.54;46.81;100629.56;5096824;28;20103;-75
2022/04/24 08:47:16;;;;;;;0.38;0.38;;;;;;;16.57;46.78;100645.44;5096875;28;20028;-75
2022/04/24 08:49:43;;;;;;;0.10;0.10;;;;;;;16.62;46.70;100638.03;5098364;28;20035;-74
2022/04/24 08:52:10;;;;;;;0.00;0.00;;;;;;;16.67;46.76;100638.69;5093380;28;20107;-74
2022/04/24 08:54:40;;;;;;;0.22;0.22;;;;;;;16.74;47.10;100637.44;5093434;28;20086;-74
2022/04/24 08:57:08;;;;;;;0.28;0.28;;;;;;;16.84;46.96;100643.22;5089121;28;20025;-75
2022/04/24 08:59:36;;;;;;;0.20;0.20;;;;;;;16.92;46.18;100642.88;5083679;28;20043;-75
2022/04/24 09:02:03;;;;;;;0.10;0.10;;;;;;;17.06;46.59;100643.06;5092295;28;20050;-77
2022/04/24 09:04:33;;;;;;;0.00;0.00;;;;;;;17.20;46.37;100646.84;5093475;28;20016;-76
2022/04/24 09:07:01;;;;;;;0.40;0.35;;;;;;;17.26;45.94;100642.03;5080066;28;20115;-75
2022/04/24 09:09:29;;;;;;;0.25;0.25;;;;;;;17.34;46.19;100641.63;5077155;28;20059;-75
2022/04/24 09:12:13;;;;;;;0.08;0.08;;;;;;;17.49;45.18;100645.31;5085444;28;20036;-75
2022/04/24 09:14:40;;;;;;;0.30;0.20;;;;;;;17.40;44.49;100646.66;5089523;28;20023;-75
2022/04/24 09:17:15;;;;;;;0.40;0.40;;;;;;;17.46;44.78;100646.34;5076649;28;20020;-75
2022/04/24 09:19:42;;;;;;;0.10;0.10;;;;;;;17.50;45.40;100646.22;5081336;28;20463;-75
2022/04/24 09:22:10;;;;;;;0.25;0.25;;;;;;;17.54;44.94;100645.09;5086588;28;20415;-75
2022/04/24 09:24:49;;;;;;;0.43;0.43;;;;;;;17.65;44.89;100647.22;5075996;28;20062;-74
2022/04/24 09:27:32;;;;;;;0.08;0.08;;;;;;;17.72;44.14;100643.25;5087130;28;20036;-75
2022/04/24 09:30:01;;;;;;;0.52;0.52;;;;;;;17.73;44.30;100645.88;5080141;28;20100;-75
2022/04/24 09:32:29;;;;;;;1.38;1.08;;;;;;;17.78;44.99;100649.16;5080459;28;20438;-74
2022/04/24 09:34:56;;;;;;;0.10;0.10;;;;;;;17.89;44.25;100653.91;5064240;28;20456;-75
2022/04/24 09:37:23;;;;;;;0.10;0.10;;;;;;;17.99;45.02;100654.31;5068501;28;20115;-75
2022/04/24 09:39:52;;;;;;;0.10;0.10;;;;;;;18.13;44.12;100650.03;5063428;28;20043;-74
2022/04/24 09:42:19;;;;;;;0.10;0.10;;;;;;;18.18;43.98;100653.31;5071856;28;20037;-75
2022/04/24 09:44:50;;;;;;;0.10;0.10;;;;;;;18.28;44.13;100654.56;5072379;28;20120;-75
2022/04/24 09:47:19;;;;;;;0.30;0.30;;;;;;;18.40;44.07;100656.53;5064146;28;20052;-75
2022/04/24 09:49:46;;;;;;;0.20;0.20;;;;;;;18.52;43.21;100646.97;5077847;28;20041;-75
2022/04/24 09:52:16;;;;;;;0.05;0.05;;;;;;;18.64;43.42;100647.22;5069762;28;20032;-75
2022/04/24 09:54:46;;;;;;;0.00;0.00;;;;;;;18.74;42.87;100645.72;5067191;28;20032;-75
2022/04/24 09:57:13;;;;;;;0.95;0.95;;;;;;;18.76;43.02;100643.81;5063987;28;20041;-75
2022/04/24 09:59:43;;;;;;;0.20;0.20;;;;;;;18.79;40.99;100651.72;5065800;28;20036;-76
2022/04/24 10:02:11;;;;;;;0.30;0.30;;;;;;;18.89;42.18;100655.59;5065819;28;20097;-75
2022/04/24 10:04:39;;;;;;;0.40;0.40;;;;;;;18.89;42.35;100652.03;5076877;28;20024;-75
2022/04/24 10:07:07;;;;;;;0.47;0.47;;;;;;;18.93;41.63;100650.94;5076671;28;20115;-76
2022/04/24 10:09:34;;;;;;;0.10;0.10;;;;;;;19.05;41.55;100652.03;5074109;28;20035;-75
2022/04/24 10:12:05;;;;;;;1.20;0.82;;;;;;;19.09;41.80;100645.53;5075642;28;20072;-75
2022/04/24 10:14:34;;;;;;;0.00;0.00;;;;;;;19.13;39.94;100646.19;5073690;28;20043;-75
2022/04/24 10:17:31;;;;;;;0.00;0.00;;;;;;;19.23;40.75;100652.78;5071006;28;20056;-75
2022/04/24 10:20:16;;;;;;;0.10;0.10;;;;;;;19.30;41.15;100647.88;5078181;28;20037;-75
2022/04/24 10:22:46;;;;;;;0.10;0.10;;;;;;;19.40;41.44;100649.94;5066444;28;20037;-75
2022/04/24 10:25:15;;;;;;;0.57;0.57;;;;;;;19.48;41.15;100656.69;5068582;28;20415;-75
2022/04/24 10:27:43;;;;;;;0.25;0.25;;;;;;;19.55;41.13;100655.31;5062857;28;20028;-75
2022/04/24 10:30:22;;;;;;;2.22;0.50;;;;;;;19.65;40.58;100650.25;5075045;28;20024;-76
2022/04/24 10:32:49;;;;;;;0.10;0.10;;;;;;;19.75;40.98;100661.31;5057318;22;20064;-84
2022/04/24 10:35:18;;;;;;;0.00;0.00;;;;;;;19.77;40.29;100660.25;5032880;28;20124;-85
2022/04/24 10:37:47;;;;;;;0.00;0.00;;;;;;;19.91;41.47;100667.50;5029448;28;20026;-85
2022/04/24 10:40:16;;;;;;;2.85;0.73;;;;;;;20.01;40.62;100660.59;5028404;28;20048;-84
2022/04/24 10:42:43;;;;;;;0.00;0.00;;;;;;;20.06;40.83;100656.75;5040959;28;20032;-84
2022/04/24 10:47:55;;;;;;;0.00;0.00;;;;;;;20.19;40.91;100653.19;5136447;27;20033;-79
2022/04/24 10:50:22;;;;;;;0.00;0.00;;;;;;;20.17;41.12;100660.47;5116640;28;20035;-80
2022/04/24 10:52:53;;;;;;;0.35;0.35;;;;;;;20.24;41.27;100662.78;5112543;28;20059;-78
2022/04/24 10:55:23;;;;;;;3.30;0.95;;;;;;;20.27;41.47;100655.38;5084466;28;20039;-82
2022/04/24 10:57:55;;;;;;;0.30;0.30;;;;;;;20.39;41.29;100660.94;5091104;28;20024;-80
2022/04/24 11:00:32;;;;;;;10.50;1.40;;;;;;;20.38;41.42;100657.41;5083998;28;20025;-77
2022/04/24 11:05:47;;;;;;;0.00;0.00;;;;;;;20.48;41.13;100653.13;5105704;27;20138;-78
2022/04/24 11:08:20;;;;;;;0.45;0.45;;;;;;;20.49;40.50;100644.09;5089487;28;20486;-78
2022/04/24 11:10:49;;;;;;;0.00;0.00;;;;;;;20.61;40.53;100652.34;5090904;28;20032;-77
2022/04/24 11:13:21;;;;;;;0.63;0.63;;;;;;;20.66;40.02;100650.22;5097048;28;20025;-78
2022/04/24 11:15:49;;;;;;;0.10;0.10;;;;;;;20.67;40.04;100641.16;5084181;28;20031;-77
2022/04/24 11:18:30;;;;;;;9.93;1.13;;;;;;;20.84;39.30;100645.47;5085008;28;20082;-77
2022/04/24 11:21:01;;;;;;;0.30;0.30;;;;;;;20.86;39.59;100646.25;5078321;28;20024;-77
2022/04/24 11:23:31;;;;;;;0.00;0.00;;;;;;;20.86;38.98;100646.25;5081021;28;20039;-78
2022/04/24 11:25:59;;;;;;;0.10;0.10;;;;;;;20.97;39.55;100637.44;5087768;28;20048;-78
2022/04/24 11:28:42;;;;;;;0.10;0.10;;;;;;;21.17;39.52;100633.38;5086413;28;20055;-77
2022/04/24 11:36:32;;;;;;;0.00;0.00;;;;;;;21.35;38.05;100625.91;5119030;27;20134;-78
2022/04/24 11:39:02;;;;;;;0.10;0.10;;;;;;;21.27;37.90;100639.91;5098636;28;20039;-77
2022/04/24 11:41:30;;;;;;;0.25;0.25;;;;;;;21.32;38.36;100639.56;5088811;28;20058;-77
2022/04/24 11:44:01;;;;;;;0.17;0.17;;;;;;;21.38;38.30;100636.44;5088728;28;20027;-78
2022/04/24 11:50:14;;;;;;;0.20;0.20;;;;;;;21.36;37.24;100645.59;5084439;28;20135;-78